Airfield :
LOGIN :

Register | Disclaimer

   EN    FR    IT 

 










Legend :    VFR   Marginal VFR   IFR   Intensive IFR   Very Intensive IFR
Visi :
Ceiling :
>= 8 km
>= 3000ft
5 to 8 km
1000 to 3000 ft
1500m to 5 km
500 to 1000 ft
800 to 1500m
200 to 500 ft
< 800m
< 200 ft
Symbols :   Thunderstorms  Fog  Heavy snow  Heavy precipitations  Wind > 20 kt
SIGMETs :     Misc.  Thunderstorms  Icing  Turbulence  Mountain Waves  Volcanic Ashes






- Airport Elevation : 32 ft
- IATA code : LKZ


EGUL - RAF Lakenheath

CURRENT METAR :
  • 231901Z AUTO 06011KT 9999 SCT028 18/03 A2995 RMK AO2 SLP145 $

EXPIRED METARs :
  • 231856Z AUTO 06011KT 9999 BKN028 18/03 A2996 RMK AO2 SLP149 T01780025 $
  • 231756Z AUTO 06011KT 9999 OVC026 18/02 A2997 RMK AO2 SLP152 T01830017 10200 20183 57013 $
  • 231656Z AUTO 08009KT 9999 OVC023 19/03 A2998 RMK AO2 SLP156 T01870033 $

TAF AMD TAF EGUL
Valid from the 23 at 16:00 until the 24 at 18:00 UTC


231612Z 2316/2418 08012KT 9999 BKN020 BKN270 QNH2997INS
BECMG 2319/2320 08012KT 9999 BKN010 BKN270 QNH2997INS
BECMG 2322/2323 07009KT 9999 BKN007 OVC015 QNH2984INS
TEMPO 2403/2407 8000 BR
BECMG 2406/2407 07012G18KT 9999 SCT007 BKN010 QNH2982INS
BECMG 2409/2410 06012KT 9999 FEW007 BKN015 QNH2981INS
BECMG 2411/2412 06012KT 8000 -SHRA SCT010 BKN020 QNH2979INS
TEMPO 2415/2418 6000 -SHRA BKN010 TX22/2411Z TN13/2404Z LAST NO AMDS AFT 2316 NEXT 2604



MET'MAP, your aeronautical weather chart ! - Copyright ORBIFLY December 2007 - Disclaimer

ORBIFLY MET'MAP TEAM :

Programming & Development : Alexandra Zaïnal
Concept & original design : Baudouin d'Aumeries
Assistance for programming : Marc-Olivier Méhu
Technical & hardware support : Manuel Goepfert

Contact : metmap@orbifly.com




SOURCES & CREDITS :

   NOAA